sensor_id;sensor_type;location;lat;lon;timestamp;P1;durP1;ratioP1;P2;durP2;ratioP2
43014;SDS011;28637;50.554;7.032;2023-01-16T00:04:36;0.95;;;0.50;;
43014;SDS011;28637;50.554;7.032;2023-01-16T00:09:36;1.75;;;0.60;;
43014;SDS011;28637;50.554;7.032;2023-01-16T00:14:37;1.85;;;0.57;;
43014;SDS011;28637;50.554;7.032;2023-01-16T00:19:37;1.63;;;0.57;;
43014;SDS011;28637;50.554;7.032;2023-01-16T00:24:38;0.60;;;0.50;;
43014;SDS011;28637;50.554;7.032;2023-01-16T00:29:39;1.75;;;0.60;;
43014;SDS011;28637;50.554;7.032;2023-01-16T00:34:39;1.25;;;0.63;;
43014;SDS011;28637;50.554;7.032;2023-01-16T00:39:40;0.82;;;0.30;;
43014;SDS011;28637;50.554;7.032;2023-01-16T00:44:41;2.13;;;0.43;;
43014;SDS011;28637;50.554;7.032;2023-01-16T00:49:41;1.67;;;0.45;;
43014;SDS011;28637;50.554;7.032;2023-01-16T00:54:42;1.77;;;0.68;;
43014;SDS011;28637;50.554;7.032;2023-01-16T00:59:43;0.52;;;0.30;;
43014;SDS011;28637;50.554;7.032;2023-01-16T01:04:43;1.80;;;0.50;;
43014;SDS011;28637;50.554;7.032;2023-01-16T01:09:44;1.17;;;0.25;;
43014;SDS011;28637;50.554;7.032;2023-01-16T01:14:45;0.88;;;0.35;;
43014;SDS011;28637;50.554;7.032;2023-01-16T01:19:45;2.55;;;0.40;;
43014;SDS011;28637;50.554;7.032;2023-01-16T01:24:47;3.58;;;0.40;;
43014;SDS011;28637;50.554;7.032;2023-01-16T01:29:48;0.77;;;0.40;;
43014;SDS011;28637;50.554;7.032;2023-01-16T01:34:50;2.28;;;0.52;;
43014;SDS011;28637;50.554;7.032;2023-01-16T01:39:50;0.90;;;0.47;;
43014;SDS011;28637;50.554;7.032;2023-01-16T01:44:53;1.83;;;0.70;;
43014;SDS011;28637;50.554;7.032;2023-01-16T01:49:54;2.60;;;0.60;;
43014;SDS011;28637;50.554;7.032;2023-01-16T01:54:58;3.30;;;0.50;;
43014;SDS011;28637;50.554;7.032;2023-01-16T02:00:10;2.72;;;0.85;;
43014;SDS011;28637;50.554;7.032;2023-01-16T02:05:19;2.55;;;0.63;;
43014;SDS011;28637;50.554;7.032;2023-01-16T02:15:49;4.30;;;0.73;;
43014;SDS011;28637;50.554;7.032;2023-01-16T02:58:31;2.40;;;0.60;;
43014;SDS011;28637;50.554;7.032;2023-01-16T03:03:43;2.40;;;0.75;;
43014;SDS011;28637;50.554;7.032;2023-01-16T03:36:06;2.50;;;0.60;;
43014;SDS011;28637;50.554;7.032;2023-01-16T03:41:20;1.08;;;0.40;;
43014;SDS011;28637;50.554;7.032;2023-01-16T03:46:28;3.13;;;0.65;;
43014;SDS011;28637;50.554;7.032;2023-01-16T03:51:33;1.95;;;0.40;;
43014;SDS011;28637;50.554;7.032;2023-01-16T03:56:40;2.40;;;0.40;;
43014;SDS011;28637;50.554;7.032;2023-01-16T04:01:55;1.30;;;0.30;;
43014;SDS011;28637;50.554;7.032;2023-01-16T04:12:35;1.70;;;0.40;;
43014;SDS011;28637;50.554;7.032;2023-01-16T04:17:38;0.95;;;0.30;;
43014;SDS011;28637;50.554;7.032;2023-01-16T04:22:40;0.75;;;0.30;;
43014;SDS011;28637;50.554;7.032;2023-01-16T04:27:46;3.10;;;0.45;;
43014;SDS011;28637;50.554;7.032;2023-01-16T04:32:47;0.67;;;0.40;;
43014;SDS011;28637;50.554;7.032;2023-01-16T04:37:47;1.23;;;0.30;;
43014;SDS011;28637;50.554;7.032;2023-01-16T04:42:48;1.00;;;0.30;;
43014;SDS011;28637;50.554;7.032;2023-01-16T04:47:49;1.00;;;0.40;;
43014;SDS011;28637;50.554;7.032;2023-01-16T04:52:50;1.05;;;0.45;;
43014;SDS011;28637;50.554;7.032;2023-01-16T04:57:52;1.75;;;0.35;;
43014;SDS011;28637;50.554;7.032;2023-01-16T05:02:52;1.13;;;0.23;;
43014;SDS011;28637;50.554;7.032;2023-01-16T05:07:53;1.33;;;0.40;;
43014;SDS011;28637;50.554;7.032;2023-01-16T05:13:12;2.72;;;0.40;;
43014;SDS011;28637;50.554;7.032;2023-01-16T05:18:13;1.10;;;0.37;;
43014;SDS011;28637;50.554;7.032;2023-01-16T05:23:13;0.70;;;0.30;;
43014;SDS011;28637;50.554;7.032;2023-01-16T05:28:14;2.53;;;0.50;;
43014;SDS011;28637;50.554;7.032;2023-01-16T05:33:14;1.33;;;0.40;;
43014;SDS011;28637;50.554;7.032;2023-01-16T05:38:15;2.77;;;0.50;;
43014;SDS011;28637;50.554;7.032;2023-01-16T05:43:16;4.53;;;0.50;;
43014;SDS011;28637;50.554;7.032;2023-01-16T05:48:17;1.60;;;0.50;;
43014;SDS011;28637;50.554;7.032;2023-01-16T05:53:17;4.07;;;0.60;;
43014;SDS011;28637;50.554;7.032;2023-01-16T05:58:18;1.10;;;0.68;;
43014;SDS011;28637;50.554;7.032;2023-01-16T06:03:18;2.85;;;0.90;;
43014;SDS011;28637;50.554;7.032;2023-01-16T06:13:21;2.03;;;0.88;;
43014;SDS011;28637;50.554;7.032;2023-01-16T06:18:22;2.92;;;1.40;;
43014;SDS011;28637;50.554;7.032;2023-01-16T06:23:22;4.55;;;1.50;;
43014;SDS011;28637;50.554;7.032;2023-01-16T06:28:23;2.50;;;1.15;;
43014;SDS011;28637;50.554;7.032;2023-01-16T06:33:24;4.25;;;1.27;;
43014;SDS011;28637;50.554;7.032;2023-01-16T06:38:24;3.38;;;1.23;;
43014;SDS011;28637;50.554;7.032;2023-01-16T06:43:25;3.20;;;1.30;;
43014;SDS011;28637;50.554;7.032;2023-01-16T06:48:27;4.03;;;1.17;;
43014;SDS011;28637;50.554;7.032;2023-01-16T06:53:27;1.20;;;1.10;;
43014;SDS011;28637;50.554;7.032;2023-01-16T06:58:28;4.17;;;1.33;;
43014;SDS011;28637;50.554;7.032;2023-01-16T07:03:29;1.23;;;0.80;;
43014;SDS011;28637;50.554;7.032;2023-01-16T07:08:29;5.20;;;1.10;;
43014;SDS011;28637;50.554;7.032;2023-01-16T07:13:30;2.42;;;0.90;;
43014;SDS011;28637;50.554;7.032;2023-01-16T07:18:31;3.20;;;1.20;;
43014;SDS011;28637;50.554;7.032;2023-01-16T07:23:51;2.22;;;0.90;;
43014;SDS011;28637;50.554;7.032;2023-01-16T07:28:55;2.33;;;0.95;;
43014;SDS011;28637;50.554;7.032;2023-01-16T07:33:57;3.63;;;1.02;;
43014;SDS011;28637;50.554;7.032;2023-01-16T07:38:58;1.65;;;0.88;;
43014;SDS011;28637;50.554;7.032;2023-01-16T07:43:59;2.90;;;1.00;;
43014;SDS011;28637;50.554;7.032;2023-01-16T07:48:59;3.65;;;1.00;;
43014;SDS011;28637;50.554;7.032;2023-01-16T07:54:00;1.88;;;1.02;;
43014;SDS011;28637;50.554;7.032;2023-01-16T07:59:01;3.70;;;1.33;;
43014;SDS011;28637;50.554;7.032;2023-01-16T08:04:01;2.90;;;1.00;;
43014;SDS011;28637;50.554;7.032;2023-01-16T08:09:02;2.10;;;0.98;;
43014;SDS011;28637;50.554;7.032;2023-01-16T08:14:03;1.67;;;1.10;;
43014;SDS011;28637;50.554;7.032;2023-01-16T08:19:05;3.30;;;0.90;;
43014;SDS011;28637;50.554;7.032;2023-01-16T08:24:06;1.45;;;1.17;;
43014;SDS011;28637;50.554;7.032;2023-01-16T08:29:07;2.67;;;0.97;;
43014;SDS011;28637;50.554;7.032;2023-01-16T08:34:08;3.50;;;0.90;;
43014;SDS011;28637;50.554;7.032;2023-01-16T08:39:09;0.73;;;0.70;;
43014;SDS011;28637;50.554;7.032;2023-01-16T08:44:11;2.03;;;1.05;;
43014;SDS011;28637;50.554;7.032;2023-01-16T08:49:30;2.60;;;0.90;;
43014;SDS011;28637;50.554;7.032;2023-01-16T08:54:49;3.00;;;1.10;;
43014;SDS011;28637;50.554;7.032;2023-01-16T08:59:50;3.05;;;1.15;;
43014;SDS011;28637;50.554;7.032;2023-01-16T09:04:50;2.25;;;1.15;;
43014;SDS011;28637;50.554;7.032;2023-01-16T09:09:51;3.47;;;1.65;;
43014;SDS011;28637;50.554;7.032;2023-01-16T09:14:52;1.90;;;0.95;;
43014;SDS011;28637;50.554;7.032;2023-01-16T09:19:54;1.70;;;0.80;;
43014;SDS011;28637;50.554;7.032;2023-01-16T09:24:55;1.10;;;0.63;;
43014;SDS011;28637;50.554;7.032;2023-01-16T09:29:56;2.55;;;1.38;;
43014;SDS011;28637;50.554;7.032;2023-01-16T09:34:56;4.05;;;2.08;;
43014;SDS011;28637;50.554;7.032;2023-01-16T09:39:58;0.70;;;0.50;;
43014;SDS011;28637;50.554;7.032;2023-01-16T09:45:00;0.40;;;0.30;;
43014;SDS011;28637;50.554;7.032;2023-01-16T09:50:32;0.63;;;0.20;;
43014;SDS011;28637;50.554;7.032;2023-01-16T09:55:46;0.10;;;0.10;;
43014;SDS011;28637;50.554;7.032;2023-01-16T10:01:13;1.45;;;0.50;;
43014;SDS011;28637;50.554;7.032;2023-01-16T10:06:29;0.32;;;0.20;;
43014;SDS011;28637;50.554;7.032;2023-01-16T10:16:46;0.10;;;0.10;;
43014;SDS011;28637;50.554;7.032;2023-01-16T10:38:47;1.35;;;0.60;;
43014;SDS011;28637;50.554;7.032;2023-01-16T10:43:55;1.00;;;0.45;;
43014;SDS011;28637;50.554;7.032;2023-01-16T10:49:14;0.57;;;0.40;;
43014;SDS011;28637;50.554;7.032;2023-01-16T10:54:29;1.17;;;0.40;;
43014;SDS011;28637;50.554;7.032;2023-01-16T10:59:29;0.45;;;0.45;;
43014;SDS011;28637;50.554;7.032;2023-01-16T11:04:33;2.38;;;0.80;;
43014;SDS011;28637;50.554;7.032;2023-01-16T11:09:36;1.05;;;0.50;;
43014;SDS011;28637;50.554;7.032;2023-01-16T11:14:40;1.17;;;0.60;;
43014;SDS011;28637;50.554;7.032;2023-01-16T11:20:00;0.60;;;0.50;;
43014;SDS011;28637;50.554;7.032;2023-01-16T11:25:03;1.73;;;0.50;;
43014;SDS011;28637;50.554;7.032;2023-01-16T11:30:07;1.58;;;0.57;;
43014;SDS011;28637;50.554;7.032;2023-01-16T11:35:17;1.58;;;0.40;;
43014;SDS011;28637;50.554;7.032;2023-01-16T11:40:19;1.00;;;0.52;;
43014;SDS011;28637;50.554;7.032;2023-01-16T11:45:22;0.45;;;0.40;;
43014;SDS011;28637;50.554;7.032;2023-01-16T11:50:44;1.70;;;0.50;;
43014;SDS011;28637;50.554;7.032;2023-01-16T11:55:55;0.90;;;0.70;;
43014;SDS011;28637;50.554;7.032;2023-01-16T12:01:22;1.23;;;0.70;;
43014;SDS011;28637;50.554;7.032;2023-01-16T12:07:16;0.75;;;0.52;;
43014;SDS011;28637;50.554;7.032;2023-01-16T12:12:58;1.85;;;1.00;;
43014;SDS011;28637;50.554;7.032;2023-01-16T12:18:28;0.60;;;0.60;;
43014;SDS011;28637;50.554;7.032;2023-01-16T12:50:18;2.17;;;1.20;;
43014;SDS011;28637;50.554;7.032;2023-01-16T13:01:06;0.63;;;0.60;;
43014;SDS011;28637;50.554;7.032;2023-01-16T13:12:03;0.30;;;0.30;;
43014;SDS011;28637;50.554;7.032;2023-01-16T13:17:41;0.55;;;0.40;;
43014;SDS011;28637;50.554;7.032;2023-01-16T13:22:47;0.20;;;0.20;;
43014;SDS011;28637;50.554;7.032;2023-01-16T13:27:57;0.40;;;0.32;;
43014;SDS011;28637;50.554;7.032;2023-01-16T13:33:12;0.57;;;0.40;;
43014;SDS011;28637;50.554;7.032;2023-01-16T13:43:41;0.28;;;0.25;;
43014;SDS011;28637;50.554;7.032;2023-01-16T13:49:24;0.50;;;0.20;;
43014;SDS011;28637;50.554;7.032;2023-01-16T13:54:38;1.38;;;0.30;;
43014;SDS011;28637;50.554;7.032;2023-01-16T13:59:52;0.30;;;0.25;;
43014;SDS011;28637;50.554;7.032;2023-01-16T14:10:24;0.30;;;0.30;;
43014;SDS011;28637;50.554;7.032;2023-01-16T14:15:43;0.80;;;0.40;;
43014;SDS011;28637;50.554;7.032;2023-01-16T14:21:22;0.43;;;0.43;;
43014;SDS011;28637;50.554;7.032;2023-01-16T14:31:41;0.98;;;0.60;;
43014;SDS011;28637;50.554;7.032;2023-01-16T14:36:45;0.70;;;0.60;;
43014;SDS011;28637;50.554;7.032;2023-01-16T14:41:50;1.05;;;0.77;;
43014;SDS011;28637;50.554;7.032;2023-01-16T14:57:59;1.77;;;1.67;;
43014;SDS011;28637;50.554;7.032;2023-01-16T15:03:09;1.60;;;1.50;;
43014;SDS011;28637;50.554;7.032;2023-01-16T15:08:14;0.40;;;0.40;;
43014;SDS011;28637;50.554;7.032;2023-01-16T15:13:28;1.10;;;1.00;;
43014;SDS011;28637;50.554;7.032;2023-01-16T15:18:53;1.73;;;1.30;;
43014;SDS011;28637;50.554;7.032;2023-01-16T15:24:15;1.58;;;1.40;;
43014;SDS011;28637;50.554;7.032;2023-01-16T15:34:47;3.00;;;1.83;;
43014;SDS011;28637;50.554;7.032;2023-01-16T15:40:04;2.65;;;1.58;;
43014;SDS011;28637;50.554;7.032;2023-01-16T15:45:22;4.70;;;2.20;;
43014;SDS011;28637;50.554;7.032;2023-01-16T15:55:48;6.00;;;2.25;;
43014;SDS011;28637;50.554;7.032;2023-01-16T16:01:00;3.05;;;1.70;;
43014;SDS011;28637;50.554;7.032;2023-01-16T16:06:04;3.95;;;1.65;;
43014;SDS011;28637;50.554;7.032;2023-01-16T16:11:08;0.80;;;0.50;;
43014;SDS011;28637;50.554;7.032;2023-01-16T16:16:33;0.73;;;0.35;;
43014;SDS011;28637;50.554;7.032;2023-01-16T16:21:52;0.45;;;0.10;;
43014;SDS011;28637;50.554;7.032;2023-01-16T16:27:13;0.10;;;0.10;;
43014;SDS011;28637;50.554;7.032;2023-01-16T16:32:16;0.20;;;0.20;;
43014;SDS011;28637;50.554;7.032;2023-01-16T16:37:18;0.28;;;0.28;;
43014;SDS011;28637;50.554;7.032;2023-01-16T16:47:27;0.55;;;0.30;;
43014;SDS011;28637;50.554;7.032;2023-01-16T16:57:42;0.32;;;0.30;;
43014;SDS011;28637;50.554;7.032;2023-01-16T17:03:00;1.85;;;0.20;;
43014;SDS011;28637;50.554;7.032;2023-01-16T17:08:16;0.20;;;0.20;;
43014;SDS011;28637;50.554;7.032;2023-01-16T17:13:20;0.85;;;0.57;;
43014;SDS011;28637;50.554;7.032;2023-01-16T17:18:22;0.47;;;0.40;;
43014;SDS011;28637;50.554;7.032;2023-01-16T17:23:24;0.90;;;0.38;;
43014;SDS011;28637;50.554;7.032;2023-01-16T17:28:26;0.60;;;0.60;;
43014;SDS011;28637;50.554;7.032;2023-01-16T17:33:27;0.50;;;0.50;;
43014;SDS011;28637;50.554;7.032;2023-01-16T17:38:30;0.50;;;0.50;;
43014;SDS011;28637;50.554;7.032;2023-01-16T17:43:31;0.57;;;0.40;;
43014;SDS011;28637;50.554;7.032;2023-01-16T17:48:50;0.93;;;0.63;;
43014;SDS011;28637;50.554;7.032;2023-01-16T17:53:51;0.80;;;0.50;;
43014;SDS011;28637;50.554;7.032;2023-01-16T17:58:53;1.02;;;0.40;;
43014;SDS011;28637;50.554;7.032;2023-01-16T18:03:58;1.48;;;0.60;;
43014;SDS011;28637;50.554;7.032;2023-01-16T18:14:30;0.60;;;0.40;;
43014;SDS011;28637;50.554;7.032;2023-01-16T18:19:50;1.00;;;0.50;;
43014;SDS011;28637;50.554;7.032;2023-01-16T18:24:55;0.50;;;0.50;;
43014;SDS011;28637;50.554;7.032;2023-01-16T18:29:56;2.33;;;0.50;;
43014;SDS011;28637;50.554;7.032;2023-01-16T18:35:00;0.50;;;0.40;;
43014;SDS011;28637;50.554;7.032;2023-01-16T18:40:04;1.63;;;0.55;;
43014;SDS011;28637;50.554;7.032;2023-01-16T18:45:26;0.50;;;0.50;;
43014;SDS011;28637;50.554;7.032;2023-01-16T18:50:46;0.50;;;0.30;;
43014;SDS011;28637;50.554;7.032;2023-01-16T18:56:09;0.43;;;0.30;;
43014;SDS011;28637;50.554;7.032;2023-01-16T19:01:34;0.28;;;0.28;;
43014;SDS011;28637;50.554;7.032;2023-01-16T19:06:54;0.35;;;0.32;;
43014;SDS011;28637;50.554;7.032;2023-01-16T19:11:59;0.32;;;0.32;;
43014;SDS011;28637;50.554;7.032;2023-01-16T19:17:02;0.40;;;0.30;;
43014;SDS011;28637;50.554;7.032;2023-01-16T19:22:03;0.22;;;0.22;;
43014;SDS011;28637;50.554;7.032;2023-01-16T19:27:04;0.55;;;0.47;;
43014;SDS011;28637;50.554;7.032;2023-01-16T19:32:05;0.25;;;0.20;;
43014;SDS011;28637;50.554;7.032;2023-01-16T19:37:06;0.20;;;0.20;;
43014;SDS011;28637;50.554;7.032;2023-01-16T19:42:08;0.10;;;0.10;;
43014;SDS011;28637;50.554;7.032;2023-01-16T19:47:28;0.35;;;0.25;;
43014;SDS011;28637;50.554;7.032;2023-01-16T19:57:29;0.98;;;0.57;;
43014;SDS011;28637;50.554;7.032;2023-01-16T20:02:30;0.52;;;0.30;;
43014;SDS011;28637;50.554;7.032;2023-01-16T20:07:31;0.80;;;0.63;;
43014;SDS011;28637;50.554;7.032;2023-01-16T20:12:31;0.47;;;0.47;;
43014;SDS011;28637;50.554;7.032;2023-01-16T20:17:35;0.90;;;0.38;;
43014;SDS011;28637;50.554;7.032;2023-01-16T20:22:37;0.55;;;0.50;;
43014;SDS011;28637;50.554;7.032;2023-01-16T20:27:38;0.40;;;0.30;;
43014;SDS011;28637;50.554;7.032;2023-01-16T20:37:40;0.93;;;0.93;;
43014;SDS011;28637;50.554;7.032;2023-01-16T20:42:41;0.60;;;0.60;;
43014;SDS011;28637;50.554;7.032;2023-01-16T20:48:01;0.30;;;0.30;;
43014;SDS011;28637;50.554;7.032;2023-01-16T20:53:01;0.60;;;0.60;;
43014;SDS011;28637;50.554;7.032;2023-01-16T20:58:02;0.90;;;0.43;;
43014;SDS011;28637;50.554;7.032;2023-01-16T21:03:03;0.35;;;0.35;;
43014;SDS011;28637;50.554;7.032;2023-01-16T21:08:04;0.80;;;0.68;;
43014;SDS011;28637;50.554;7.032;2023-01-16T21:13:05;0.80;;;0.80;;
43014;SDS011;28637;50.554;7.032;2023-01-16T21:18:24;33.03;;;8.65;;
43014;SDS011;28637;50.554;7.032;2023-01-16T21:23:43;43.03;;;9.23;;
43014;SDS011;28637;50.554;7.032;2023-01-16T21:28:44;9.13;;;2.43;;
43014;SDS011;28637;50.554;7.032;2023-01-16T21:33:45;6.95;;;1.83;;
43014;SDS011;28637;50.554;7.032;2023-01-16T21:38:45;9.85;;;2.45;;
43014;SDS011;28637;50.554;7.032;2023-01-16T21:43:46;31.52;;;6.05;;
43014;SDS011;28637;50.554;7.032;2023-01-16T21:49:05;4.15;;;1.42;;
43014;SDS011;28637;50.554;7.032;2023-01-16T21:54:06;7.00;;;3.78;;
43014;SDS011;28637;50.554;7.032;2023-01-16T21:59:07;0.60;;;0.43;;
43014;SDS011;28637;50.554;7.032;2023-01-16T22:04:08;0.90;;;0.90;;
43014;SDS011;28637;50.554;7.032;2023-01-16T22:09:09;0.70;;;0.70;;
43014;SDS011;28637;50.554;7.032;2023-01-16T22:14:11;1.50;;;1.00;;
43014;SDS011;28637;50.554;7.032;2023-01-16T22:19:47;1.60;;;1.10;;
43014;SDS011;28637;50.554;7.032;2023-01-16T22:24:48;2.85;;;1.55;;
43014;SDS011;28637;50.554;7.032;2023-01-16T22:29:49;3.70;;;1.40;;
43014;SDS011;28637;50.554;7.032;2023-01-16T22:34:50;4.05;;;1.48;;
43014;SDS011;28637;50.554;7.032;2023-01-16T22:39:51;2.40;;;1.63;;
43014;SDS011;28637;50.554;7.032;2023-01-16T22:44:52;1.90;;;1.60;;
43014;SDS011;28637;50.554;7.032;2023-01-16T22:50:24;3.38;;;1.55;;
43014;SDS011;28637;50.554;7.032;2023-01-16T22:55:25;2.63;;;1.63;;
43014;SDS011;28637;50.554;7.032;2023-01-16T23:00:26;2.57;;;1.90;;
43014;SDS011;28637;50.554;7.032;2023-01-16T23:05:26;3.88;;;1.73;;
43014;SDS011;28637;50.554;7.032;2023-01-16T23:10:28;3.20;;;1.67;;
43014;SDS011;28637;50.554;7.032;2023-01-16T23:15:29;3.50;;;1.67;;
43014;SDS011;28637;50.554;7.032;2023-01-16T23:20:31;2.10;;;1.50;;
43014;SDS011;28637;50.554;7.032;2023-01-16T23:25:32;2.07;;;1.60;;
43014;SDS011;28637;50.554;7.032;2023-01-16T23:30:33;3.20;;;1.17;;
43014;SDS011;28637;50.554;7.032;2023-01-16T23:35:34;1.80;;;1.50;;
43014;SDS011;28637;50.554;7.032;2023-01-16T23:40:35;1.33;;;1.13;;
43014;SDS011;28637;50.554;7.032;2023-01-16T23:45:35;2.60;;;1.20;;
43014;SDS011;28637;50.554;7.032;2023-01-16T23:50:36;2.20;;;1.00;;
43014;SDS011;28637;50.554;7.032;2023-01-16T23:55:37;2.67;;;0.80;;
